Time;durP1;ratioP1;P1;durP2;ratioP2;P2;SDS_P1;SDS_P2;PMS_P1;PMS_P2;Temp;Humidity;BMP_temperature;BMP_pressure;BME280_temperature;BME280_humidity;BME280_pressure;Samples;Min_cycle;Max_cycle;Signal;HPM_P1;HPM_P2
2023/04/17 00:04:01;;;;;;;7.50;6.10;;;15.30;71.70;;;;;;10288817;28;20037;-57
2023/04/17 00:09:03;;;;;;;6.78;5.90;;;15.30;71.70;;;;;;10289017;28;20011;-57
2023/04/17 00:14:04;;;;;;;8.70;7.10;;;15.20;71.60;;;;;;10288571;28;20030;-56
2023/04/17 00:19:05;;;;;;;7.38;6.20;;;15.30;71.70;;;;;;10288756;28;20034;-57
2023/04/17 00:24:06;;;;;;;8.27;6.68;;;15.20;71.60;;;;;;10288208;28;20455;-56
2023/04/17 00:29:06;;;;;;;7.80;6.03;;;15.20;71.60;;;;;;10288172;28;20161;-56
2023/04/17 00:34:07;;;;;;;8.30;7.22;;;15.20;71.60;;;;;;10287720;28;20118;-56
2023/04/17 00:39:08;;;;;;;12.45;7.70;;;15.20;71.50;;;;;;10270179;28;20026;-57
2023/04/17 00:44:09;;;;;;;8.10;6.40;;;15.20;71.60;;;;;;10287609;28;20110;-57
2023/04/17 00:49:10;;;;;;;8.35;7.22;;;15.20;71.60;;;;;;10270302;28;20351;-57
2023/04/17 00:54:12;;;;;;;8.20;6.75;;;15.20;71.50;;;;;;10269855;28;20023;-56
2023/04/17 00:59:16;;;;;;;9.32;7.18;;;15.20;71.50;;;;;;10286054;28;20022;-56
2023/04/17 01:04:17;;;;;;;9.32;7.00;;;15.20;71.50;;;;;;10286678;28;20046;-55
2023/04/17 01:09:18;;;;;;;7.63;5.72;;;15.20;71.50;;;;;;10269308;28;20300;-56
2023/04/17 01:14:18;;;;;;;8.30;6.47;;;15.10;71.50;;;;;;10269364;28;20023;-57
2023/04/17 01:19:19;;;;;;;10.15;7.20;;;15.20;71.50;;;;;;10286292;28;20126;-56
2023/04/17 01:24:20;;;;;;;10.88;7.75;;;15.20;71.40;;;;;;10285988;28;20039;-55
2023/04/17 01:29:21;;;;;;;9.55;7.50;;;15.10;71.40;;;;;;10285854;28;20019;-56
2023/04/17 01:34:21;;;;;;;8.80;6.32;;;15.10;71.40;;;;;;10285471;28;20522;-57
2023/04/17 01:39:22;;;;;;;7.85;6.60;;;15.10;71.40;;;;;;10268473;28;20027;-56
2023/04/17 01:44:23;;;;;;;9.65;6.68;;;15.10;71.40;;;;;;10285259;28;20039;-56
2023/04/17 01:49:23;;;;;;;8.65;7.00;;;15.10;71.40;;;;;;10284876;28;20122;-57
2023/04/17 01:54:24;;;;;;;8.77;6.47;;;15.10;71.40;;;;;;10267397;28;20382;-56
2023/04/17 01:59:25;;;;;;;8.95;6.63;;;15.10;71.40;;;;;;10265748;28;20054;-57
2023/04/17 02:04:25;;;;;;;9.27;6.82;;;15.10;71.40;;;;;;10283439;28;20030;-56
2023/04/17 02:09:26;;;;;;;7.70;6.85;;;15.10;71.30;;;;;;10265994;28;20050;-56
2023/04/17 02:14:29;;;;;;;8.95;6.90;;;15.10;71.40;;;;;;10282911;28;20027;-56
2023/04/17 02:19:29;;;;;;;8.77;6.78;;;15.10;71.30;;;;;;10283391;28;20584;-56
2023/04/17 02:24:30;;;;;;;8.80;6.70;;;15.10;71.30;;;;;;10283884;28;20210;-57
2023/04/17 02:29:31;;;;;;;11.48;7.80;;;15.10;71.30;;;;;;10283628;28;20441;-57
2023/04/17 02:34:32;;;;;;;8.93;6.95;;;15.10;71.30;;;;;;10266510;28;20066;-56
2023/04/17 02:39:34;;;;;;;9.15;7.15;;;15.10;71.30;;;;;;10266374;28;20105;-57
2023/04/17 02:44:34;;;;;;;11.35;7.55;;;15.00;71.20;;;;;;10266883;28;20058;-56
2023/04/17 02:49:35;;;;;;;7.80;6.43;;;15.00;71.20;;;;;;10283405;28;20154;-56
2023/04/17 02:54:35;;;;;;;8.98;6.88;;;15.00;71.20;;;;;;10265936;28;20119;-56
2023/04/17 02:59:36;;;;;;;9.23;7.15;;;15.00;71.20;;;;;;10283385;28;20019;-56
2023/04/17 03:04:37;;;;;;;9.18;6.90;;;15.00;71.20;;;;;;10266694;28;20042;-56
2023/04/17 03:09:38;;;;;;;9.13;6.55;;;15.00;71.20;;;;;;10283154;28;20482;-56
2023/04/17 03:14:39;;;;;;;9.85;7.40;;;15.00;71.20;;;;;;10283092;28;20101;-54
2023/04/17 03:19:40;;;;;;;11.00;8.15;;;15.00;71.20;;;;;;10251444;28;20058;-57
2023/04/17 03:24:42;;;;;;;11.85;7.53;;;15.00;71.20;;;;;;10273467;28;20047;-56
2023/04/17 03:29:42;;;;;;;8.57;7.25;;;15.00;71.20;;;;;;10272818;28;20118;-56
2023/04/17 03:34:43;;;;;;;7.97;6.55;;;15.00;71.20;;;;;;10289676;28;20105;-57
2023/04/17 03:39:44;;;;;;;8.82;7.13;;;15.00;71.20;;;;;;10290317;28;20534;-56
2023/04/17 03:44:45;;;;;;;7.85;6.10;;;15.00;71.40;;;;;;10271347;28;20395;-57
2023/04/17 03:49:46;;;;;;;8.60;7.10;;;15.20;71.10;;;;;;10272381;28;20031;-57
2023/04/17 03:54:48;;;;;;;8.07;5.68;;;15.40;70.60;;;;;;10289062;28;20062;-57
2023/04/17 03:59:48;;;;;;;8.82;6.35;;;15.50;70.00;;;;;;10289161;28;20023;-55
2023/04/17 04:04:49;;;;;;;8.52;6.97;;;15.80;69.20;;;;;;10288737;28;20070;-56
2023/04/17 04:09:50;;;;;;;7.88;6.10;;;16.20;67.70;;;;;;10288842;28;20117;-56
2023/04/17 04:14:50;;;;;;;11.43;6.80;;;16.50;66.80;;;;;;10287990;28;20105;-56
2023/04/17 04:19:51;;;;;;;8.43;7.15;;;16.50;66.60;;;;;;10288193;28;20625;-56
2023/04/17 04:24:52;;;;;;;7.57;6.32;;;16.50;66.80;;;;;;10288284;28;20031;-56
2023/04/17 04:29:57;;;;;;;7.32;6.03;;;16.50;67.10;;;;;;10286572;28;20518;-56
2023/04/17 04:35:00;;;;;;;8.10;6.50;;;16.40;67.30;;;;;;10285701;28;20022;-56
2023/04/17 04:40:08;;;;;;;6.55;5.47;;;16.40;67.20;;;;;;10285150;28;20031;-56
2023/04/17 04:45:10;;;;;;;6.03;4.57;;;16.40;67.50;;;;;;10287220;28;20051;-56
2023/04/17 04:50:10;;;;;;;10.13;6.78;;;16.40;67.50;;;;;;10287223;28;20058;-57
2023/04/17 04:55:11;;;;;;;9.10;6.25;;;16.40;67.40;;;;;;10294029;28;20538;-56
2023/04/17 05:00:13;;;;;;;11.18;6.40;;;16.30;68.70;;;;;;10286928;28;20027;-55
2023/04/17 05:05:13;;;;;;;12.00;5.82;;;16.40;69.00;;;;;;10269512;28;20081;-56
2023/04/17 05:10:14;;;;;;;15.07;7.57;;;16.40;70.20;;;;;;10285375;28;20117;-57
2023/04/17 05:15:15;;;;;;;12.15;8.15;;;16.50;71.10;;;;;;10286796;28;20041;-58
2023/04/17 05:20:16;;;;;;;15.25;7.03;;;16.50;70.80;;;;;;10286382;28;20054;-57
2023/04/17 05:25:18;;;;;;;21.88;7.82;;;16.50;70.90;;;;;;10286068;28;20110;-56
2023/04/17 05:30:19;;;;;;;20.98;7.97;;;16.30;71.20;;;;;;10285924;28;20026;-57
2023/04/17 05:35:19;;;;;;;21.90;7.85;;;16.30;71.70;;;;;;10285278;28;20457;-54
2023/04/17 05:40:20;;;;;;;26.80;8.80;;;16.10;71.50;;;;;;10285599;28;20029;-55
2023/04/17 05:45:21;;;;;;;32.40;9.38;;;16.10;71.90;;;;;;10284365;28;20043;-54
2023/04/17 05:50:22;;;;;;;30.35;11.52;;;16.10;72.10;;;;;;10285201;28;20117;-55
2023/04/17 05:55:22;;;;;;;38.63;10.23;;;16.10;72.10;;;;;;10285222;28;20473;-53
2023/04/17 06:00:23;;;;;;;25.20;9.40;;;16.00;72.60;;;;;;10280877;28;20110;-55
2023/04/17 06:05:24;;;;;;;37.35;10.20;;;15.90;72.50;;;;;;10275942;28;20039;-54
2023/04/17 06:10:25;;;;;;;31.60;11.20;;;16.00;72.70;;;;;;10253161;28;20034;-53
2023/04/17 06:15:26;;;;;;;27.73;9.93;;;15.90;72.40;;;;;;10284118;28;20485;-56
2023/04/17 06:20:27;;;;;;;24.77;10.48;;;15.80;72.30;;;;;;10267054;28;20509;-56
2023/04/17 06:25:27;;;;;;;25.85;9.57;;;15.80;72.30;;;;;;10282028;28;20363;-55
2023/04/17 06:30:28;;;;;;;30.13;11.43;;;15.70;72.40;;;;;;10282698;28;20074;-56
2023/04/17 06:35:29;;;;;;;24.63;9.13;;;15.70;73.00;;;;;;10283720;28;20085;-56
2023/04/17 06:40:30;;;;;;;20.48;9.20;;;15.70;72.30;;;;;;10265298;28;20025;-55
2023/04/17 06:45:34;;;;;;;18.52;9.43;;;15.70;72.30;;;;;;10281781;28;20125;-55
2023/04/17 06:50:35;;;;;;;22.08;8.98;;;15.60;72.10;;;;;;10276386;28;20054;-55
2023/04/17 06:55:35;;;;;;;23.48;9.35;;;15.70;71.90;;;;;;10283437;28;20402;-54
2023/04/17 07:00:36;;;;;;;16.30;8.07;;;15.70;72.00;;;;;;10269003;28;20073;-55
2023/04/17 07:05:37;;;;;;;17.05;8.13;;;15.80;71.50;;;;;;10288590;28;20031;-52
2023/04/17 07:10:37;;;;;;;26.08;9.40;;;15.80;72.20;;;;;;10289162;28;20581;-51
2023/04/17 07:15:38;;;;;;;18.77;8.93;;;15.90;71.70;;;;;;10264755;28;20412;-49
2023/04/17 07:20:39;;;;;;;17.65;8.68;;;15.90;71.50;;;;;;10287760;28;20122;-52
2023/04/17 07:25:39;;;;;;;17.75;8.27;;;15.90;71.70;;;;;;10290177;28;20109;-56
2023/04/17 07:30:41;;;;;;;20.58;7.85;;;15.80;71.90;;;;;;10289067;28;20382;-53
2023/04/17 07:35:42;;;;;;;18.00;8.18;;;15.70;72.50;;;;;;10275997;28;20035;-49
2023/04/17 07:40:43;;;;;;;21.52;9.20;;;15.80;72.00;;;;;;10286519;28;20027;-49
2023/04/17 07:45:44;;;;;;;30.00;8.95;;;15.80;72.60;;;;;;10287062;28;20047;-51
2023/04/17 07:50:44;;;;;;;18.98;8.07;;;15.80;72.60;;;;;;10289918;28;20109;-50
2023/04/17 07:55:45;;;;;;;17.35;8.77;;;15.80;72.70;;;;;;10256199;28;20023;-53
2023/04/17 08:00:46;;;;;;;19.35;8.63;;;15.80;71.90;;;;;;10288782;28;20506;-52
2023/04/17 08:05:47;;;;;;;19.25;8.68;;;15.80;71.90;;;;;;10271097;28;20258;-49
2023/04/17 08:10:49;;;;;;;15.68;8.88;;;15.70;71.90;;;;;;10288167;28;20027;-53
2023/04/17 08:15:51;;;;;;;15.85;8.75;;;15.70;71.80;;;;;;10272158;28;20150;-51
2023/04/17 08:20:52;;;;;;;19.23;9.88;;;15.70;71.70;;;;;;10288738;28;20115;-50
2023/04/17 08:25:53;;;;;;;14.40;7.50;;;15.70;71.60;;;;;;10287416;28;20089;-51
2023/04/17 08:30:53;;;;;;;11.95;7.05;;;15.70;71.60;;;;;;10286256;28;20703;-50
2023/04/17 08:35:54;;;;;;;15.20;9.00;;;15.70;71.60;;;;;;10288030;28;20057;-49
2023/04/17 08:41:01;;;;;;;14.45;8.68;;;15.70;71.60;;;;;;10286508;28;20061;-53
2023/04/17 08:46:02;;;;;;;13.45;7.43;;;15.70;71.40;;;;;;10286768;28;20049;-49
2023/04/17 08:51:03;;;;;;;10.20;7.47;;;15.70;71.40;;;;;;10269775;28;20506;-50
2023/04/17 08:56:05;;;;;;;10.52;8.15;;;15.70;71.40;;;;;;10286126;28;20022;-53
2023/04/17 09:01:11;;;;;;;11.48;8.13;;;15.70;71.40;;;;;;10285838;28;20027;-55
2023/04/17 09:06:13;;;;;;;13.98;7.78;;;15.70;71.30;;;;;;10284465;28;20340;-54
2023/04/17 09:11:17;;;;;;;16.38;8.80;;;15.70;71.40;;;;;;10284957;28;20023;-55
2023/04/17 09:16:23;;;;;;;15.18;8.00;;;15.70;71.50;;;;;;10278777;28;20029;-53
2023/04/17 09:21:27;;;;;;;10.82;7.95;;;15.80;72.00;;;;;;10283903;28;20027;-53
2023/04/17 09:26:32;;;;;;;14.35;8.52;;;15.80;71.40;;;;;;10284119;28;20462;-55
2023/04/17 09:31:33;;;;;;;13.60;7.53;;;15.70;71.70;;;;;;10250876;28;20093;-54
2023/04/17 09:36:36;;;;;;;13.15;7.78;;;15.70;71.70;;;;;;10283231;28;20034;-51
2023/04/17 09:41:38;;;;;;;12.23;9.35;;;15.80;71.80;;;;;;10267083;28;20114;-53
2023/04/17 09:46:46;;;;;;;13.05;7.82;;;15.70;71.70;;;;;;10282937;28;20531;-53
2023/04/17 09:51:48;;;;;;;13.10;9.23;;;15.70;71.70;;;;;;10271996;28;20513;-51
2023/04/17 09:56:51;;;;;;;16.13;9.30;;;15.70;71.30;;;;;;10266799;28;20109;-53
2023/04/17 10:01:53;;;;;;;12.57;9.30;;;15.70;71.50;;;;;;10267159;28;20549;-54
2023/04/17 10:06:56;;;;;;;13.65;9.55;;;15.70;71.50;;;;;;10283164;28;20031;-54
2023/04/17 10:12:00;;;;;;;15.13;9.15;;;15.70;71.40;;;;;;10240805;28;20093;-50
2023/04/17 10:17:31;;;;;;;16.65;10.00;;;15.70;71.50;;;;;;10259744;28;20540;-52
2023/04/17 10:22:32;;;;;;;13.30;8.68;;;15.80;71.70;;;;;;10268731;28;20039;-54
2023/04/17 10:27:33;;;;;;;14.73;9.95;;;15.90;71.20;;;;;;10282306;28;20061;-52
2023/04/17 10:32:34;;;;;;;16.95;10.07;;;15.90;71.40;;;;;;10281943;28;20097;-52
2023/04/17 10:37:47;;;;;;;15.50;8.63;;;15.90;71.60;;;;;;10281717;28;20106;-51
2023/04/17 10:43:13;;;;;;;13.38;9.55;;;15.90;71.50;;;;;;10281296;28;20038;-56
2023/04/17 10:48:40;;;;;;;21.38;10.80;;;16.00;71.90;;;;;;10259090;28;20043;-55
2023/04/17 10:53:44;;;;;;;18.08;10.55;;;16.00;71.80;;;;;;10279102;28;20557;-55
2023/04/17 10:59:06;;;;;;;18.13;9.02;;;16.00;72.40;;;;;;10266322;28;20026;-55
2023/04/17 11:04:08;;;;;;;22.58;10.82;;;16.00;72.60;;;;;;10275369;28;20027;-56
2023/04/17 11:09:09;;;;;;;31.98;11.73;;;16.10;72.90;;;;;;10262195;28;20351;-55
2023/04/17 11:14:20;;;;;;;28.00;9.13;;;16.10;72.90;;;;;;10263293;28;20023;-53
2023/04/17 11:19:23;;;;;;;21.98;9.73;;;16.20;72.90;;;;;;10273875;28;20381;-49
2023/04/17 11:24:29;;;;;;;20.52;10.73;;;16.30;71.90;;;;;;10274620;28;20066;-51
2023/04/17 11:29:29;;;;;;;24.52;9.88;;;16.30;71.70;;;;;;10275995;28;20028;-49
2023/04/17 11:34:30;;;;;;;22.75;10.68;;;16.20;72.00;;;;;;10279057;28;20027;-53
2023/04/17 11:39:33;;;;;;;28.27;11.38;;;16.20;72.40;;;;;;10278383;28;20077;-53
2023/04/17 11:44:33;;;;;;;19.55;10.52;;;16.20;72.30;;;;;;10281890;28;20181;-49
2023/04/17 11:49:38;;;;;;;19.38;10.55;;;16.30;71.80;;;;;;10285378;28;20039;-51
2023/04/17 11:54:40;;;;;;;17.27;9.50;;;16.30;71.80;;;;;;10286589;28;20027;-50
2023/04/17 11:59:43;;;;;;;17.95;9.98;;;16.20;71.80;;;;;;10287404;28;20015;-49
2023/04/17 12:04:44;;;;;;;21.42;9.70;;;16.20;71.90;;;;;;10287583;28;20066;-50
2023/04/17 12:09:56;;;;;;;19.38;8.98;;;16.30;71.80;;;;;;10287337;28;20042;-51
2023/04/17 12:14:58;;;;;;;21.30;9.70;;;16.30;71.70;;;;;;10269534;28;20400;-52
2023/04/17 12:20:02;;;;;;;13.88;9.23;;;16.30;71.60;;;;;;10288376;28;20089;-51
2023/04/17 12:25:03;;;;;;;16.67;8.68;;;16.30;71.30;;;;;;10286332;28;20550;-56
2023/04/17 12:30:05;;;;;;;16.33;8.88;;;16.40;71.40;;;;;;10268598;28;20023;-53
2023/04/17 12:35:06;;;;;;;17.55;8.65;;;16.40;71.40;;;;;;10286424;28;20057;-53
2023/04/17 12:40:08;;;;;;;14.02;10.23;;;16.40;71.30;;;;;;10285961;28;20110;-54
2023/04/17 12:45:09;;;;;;;13.52;9.02;;;16.40;71.20;;;;;;10278013;28;20485;-56
2023/04/17 12:50:11;;;;;;;12.40;8.20;;;16.40;71.10;;;;;;10286654;28;20046;-55
2023/04/17 12:55:12;;;;;;;16.25;9.02;;;16.50;71.00;;;;;;10275112;28;20026;-56
2023/04/17 13:00:13;;;;;;;10.82;8.52;;;16.50;71.00;;;;;;10283286;28;20089;-55
2023/04/17 13:05:14;;;;;;;15.63;7.97;;;16.40;70.90;;;;;;10283715;28;20034;-54
2023/04/17 13:10:15;;;;;;;11.15;8.25;;;16.40;71.10;;;;;;10253956;28;20027;-56
2023/04/17 13:15:16;;;;;;;9.95;7.53;;;16.50;70.90;;;;;;10267092;28;20437;-54
2023/04/17 13:20:16;;;;;;;17.50;7.47;;;16.50;70.80;;;;;;10280305;28;20035;-55
2023/04/17 13:25:17;;;;;;;14.32;7.15;;;16.50;70.80;;;;;;10283832;28;20053;-54
2023/04/17 13:30:18;;;;;;;10.77;7.78;;;16.50;70.80;;;;;;10283720;28;20019;-55
2023/04/17 13:35:18;;;;;;;11.05;7.28;;;16.40;70.90;;;;;;10284850;28;20105;-54
2023/04/17 13:40:19;;;;;;;10.63;6.53;;;16.60;70.60;;;;;;10283874;28;20110;-55
2023/04/17 13:45:20;;;;;;;13.00;6.30;;;16.70;70.40;;;;;;10265785;28;20173;-54
2023/04/17 13:50:20;;;;;;;8.77;5.78;;;16.80;70.10;;;;;;10282196;28;20339;-55
2023/04/17 13:55:21;;;;;;;11.38;6.63;;;16.80;70.10;;;;;;10282024;28;20102;-54
2023/04/17 14:00:22;;;;;;;10.57;7.60;;;16.80;69.90;;;;;;10282214;28;20366;-53
2023/04/17 14:05:23;;;;;;;9.98;6.63;;;16.80;69.80;;;;;;10282964;28;20081;-53
2023/04/17 14:10:23;;;;;;;10.18;7.15;;;16.80;70.60;;;;;;10266506;28;20023;-50
2023/04/17 14:15:24;;;;;;;16.67;7.93;;;16.80;69.90;;;;;;10282853;28;20473;-51
2023/04/17 14:20:25;;;;;;;10.85;6.32;;;16.70;69.40;;;;;;10282770;28;20114;-52
2023/04/17 14:25:25;;;;;;;15.88;7.25;;;16.70;69.40;;;;;;10282424;28;20027;-52
2023/04/17 14:30:26;;;;;;;23.00;7.53;;;16.80;70.20;;;;;;10282781;28;20027;-52
2023/04/17 14:35:27;;;;;;;17.25;8.15;;;16.70;70.30;;;;;;10273295;28;20142;-54
2023/04/17 14:40:27;;;;;;;24.67;10.27;;;16.70;70.40;;;;;;10280425;28;20026;-54
2023/04/17 14:45:28;;;;;;;15.35;8.15;;;16.70;70.30;;;;;;10264806;28;20121;-55
2023/04/17 14:50:29;;;;;;;13.93;7.65;;;16.70;70.10;;;;;;10278348;28;20023;-53
2023/04/17 14:55:30;;;;;;;15.30;7.07;;;16.80;69.80;;;;;;10266435;28;20634;-54
2023/04/17 15:00:31;;;;;;;12.75;7.13;;;16.80;69.90;;;;;;10254650;28;20423;-55
2023/04/17 15:05:31;;;;;;;15.07;8.55;;;16.90;70.20;;;;;;10276557;28;20102;-54
2023/04/17 15:10:32;;;;;;;17.50;8.18;;;17.00;70.50;;;;;;10282350;28;20102;-51
2023/04/17 15:15:33;;;;;;;20.52;10.43;;;16.90;70.80;;;;;;10249256;28;20090;-52
2023/04/17 15:20:34;;;;;;;23.73;10.80;;;16.90;71.50;;;;;;10289787;28;20034;-55
2023/04/17 15:25:34;;;;;;;25.98;11.50;;;16.80;72.10;;;;;;10268272;28;20027;-56
2023/04/17 15:30:35;;;;;;;30.58;15.05;;;16.80;72.30;;;;;;10286937;28;20033;-54
2023/04/17 15:35:36;;;;;;;26.02;12.90;;;16.70;71.60;;;;;;10269868;28;20031;-56
2023/04/17 15:40:37;;;;;;;21.60;11.35;;;16.70;70.90;;;;;;10280297;28;20078;-53
2023/04/17 15:45:38;;;;;;;20.40;11.68;;;16.80;70.00;;;;;;10289303;28;20193;-52
2023/04/17 15:50:38;;;;;;;24.52;11.77;;;16.80;69.30;;;;;;10283192;28;20046;-56
2023/04/17 15:55:39;;;;;;;26.42;11.80;;;16.80;68.80;;;;;;10285602;28;20122;-54
2023/04/17 16:00:40;;;;;;;19.33;11.95;;;16.90;68.30;;;;;;10288422;28;20038;-56
2023/04/17 16:05:41;;;;;;;19.02;11.73;;;17.20;67.20;;;;;;10288568;28;20610;-55
2023/04/17 16:10:41;;;;;;;15.98;10.25;;;17.30;65.90;;;;;;10287695;28;20022;-56
2023/04/17 16:15:43;;;;;;;19.65;9.90;;;17.20;66.40;;;;;;10270496;28;20518;-56
2023/04/17 16:20:45;;;;;;;15.60;8.30;;;17.10;65.80;;;;;;10287820;28;20027;-54
2023/04/17 16:25:45;;;;;;;18.42;9.98;;;17.10;67.20;;;;;;10287657;28;20058;-57
2023/04/17 16:30:49;;;;;;;18.75;9.40;;;17.10;68.10;;;;;;10287266;28;20019;-53
2023/04/17 16:35:49;;;;;;;28.92;9.50;;;17.00;68.70;;;;;;10264971;28;20023;-51
2023/04/17 16:40:52;;;;;;;27.30;11.13;;;16.90;68.60;;;;;;10289203;28;20041;-55
2023/04/17 16:45:53;;;;;;;21.23;9.23;;;16.80;68.80;;;;;;10277148;28;20043;-50
2023/04/17 16:50:57;;;;;;;15.48;9.73;;;16.70;68.70;;;;;;10292035;28;20110;-54
2023/04/17 16:55:58;;;;;;;17.67;8.57;;;16.70;69.30;;;;;;10270205;28;20022;-50
2023/04/17 17:00:59;;;;;;;14.40;7.95;;;16.60;69.00;;;;;;10268764;28;20023;-54
2023/04/17 17:06:02;;;;;;;17.13;8.60;;;16.60;69.00;;;;;;10284896;28;20041;-54
2023/04/17 17:11:03;;;;;;;19.77;8.77;;;16.60;69.10;;;;;;10285764;28;20110;-51
2023/04/17 17:16:04;;;;;;;18.85;8.13;;;16.60;69.20;;;;;;10286209;28;20382;-53
2023/04/17 17:21:05;;;;;;;18.08;9.43;;;16.60;69.20;;;;;;10270753;28;20034;-50
2023/04/17 17:26:07;;;;;;;20.27;9.07;;;16.60;69.60;;;;;;10285042;28;20102;-50
2023/04/17 17:31:08;;;;;;;14.85;8.40;;;16.60;69.80;;;;;;10285663;28;20019;-51
2023/04/17 17:36:10;;;;;;;16.02;8.05;;;16.60;70.00;;;;;;10285341;28;20482;-54
2023/04/17 17:41:11;;;;;;;16.75;7.03;;;16.70;69.70;;;;;;10282809;28;20015;-52
2023/04/17 17:46:11;;;;;;;13.98;7.10;;;16.60;69.80;;;;;;10280352;28;20057;-52
2023/04/17 17:51:12;;;;;;;10.95;6.93;;;16.50;69.60;;;;;;10279473;28;21109;-58
2023/04/17 17:56:13;;;;;;;10.90;7.03;;;16.50;69.70;;;;;;10262084;28;20031;-53
2023/04/17 18:01:14;;;;;;;16.10;7.75;;;16.40;69.70;;;;;;10262188;28;20026;-51
2023/04/17 18:06:15;;;;;;;12.07;7.22;;;16.40;69.60;;;;;;10281074;28;20367;-54
2023/04/17 18:11:16;;;;;;;9.88;6.63;;;16.40;69.20;;;;;;10280147;28;20039;-52
2023/04/17 18:16:16;;;;;;;18.95;8.98;;;16.40;69.50;;;;;;10281337;28;20292;-52
2023/04/17 18:21:17;;;;;;;12.18;7.55;;;16.40;69.50;;;;;;10280754;28;20113;-50
2023/04/17 18:26:18;;;;;;;11.18;7.05;;;16.40;69.40;;;;;;10263563;28;20122;-53
2023/04/17 18:31:20;;;;;;;7.68;6.65;;;16.40;69.40;;;;;;10281024;28;20025;-54
2023/04/17 18:36:21;;;;;;;15.32;7.07;;;16.30;69.40;;;;;;10280822;28;20358;-52
2023/04/17 18:41:21;;;;;;;8.93;6.18;;;16.30;69.40;;;;;;10263094;28;20023;-53
2023/04/17 18:46:23;;;;;;;11.90;7.40;;;16.30;69.40;;;;;;10245491;28;1037528;-53
2023/04/17 18:51:23;;;;;;;6.28;5.47;;;16.30;69.40;;;;;;10281230;28;20034;-48
2023/04/17 18:56:24;;;;;;;9.15;6.72;;;16.30;69.30;;;;;;10264625;28;20022;-52
2023/04/17 19:01:25;;;;;;;9.18;6.22;;;16.30;69.30;;;;;;10281855;28;20051;-54
2023/04/17 19:06:26;;;;;;;8.70;5.78;;;16.20;69.30;;;;;;10281924;28;20122;-51
2023/04/17 19:11:26;;;;;;;9.07;6.40;;;16.20;69.30;;;;;;10281691;28;20050;-53
2023/04/17 19:16:27;;;;;;;8.98;6.60;;;16.20;69.30;;;;;;10280869;28;20069;-48
2023/04/17 19:21:30;;;;;;;11.68;8.77;;;16.20;69.20;;;;;;10279998;28;20106;-53
2023/04/17 19:26:30;;;;;;;9.73;6.97;;;16.20;70.80;;;;;;10262993;28;20406;-54
2023/04/17 19:31:31;;;;;;;9.48;7.55;;;16.30;70.60;;;;;;10281013;28;20110;-53
2023/04/17 19:36:32;;;;;;;7.22;5.50;;;16.30;70.30;;;;;;10260846;28;20089;-51
2023/04/17 19:41:33;;;;;;;7.60;6.00;;;16.20;70.10;;;;;;10262611;28;20267;-51
2023/04/17 19:46:33;;;;;;;7.32;6.25;;;16.20;70.20;;;;;;10279326;28;20066;-50
2023/04/17 19:51:35;;;;;;;10.52;7.00;;;16.20;70.20;;;;;;10270557;28;20384;-52
2023/04/17 19:56:37;;;;;;;9.15;6.05;;;16.20;70.30;;;;;;10272877;28;20217;-54
2023/04/17 20:01:38;;;;;;;9.38;7.10;;;16.20;70.30;;;;;;10282274;28;20031;-53
2023/04/17 20:06:39;;;;;;;9.43;7.03;;;16.10;70.10;;;;;;10287692;28;20126;-53
2023/04/17 20:11:40;;;;;;;9.95;7.25;;;16.10;70.10;;;;;;10271894;28;20007;-53
2023/04/17 20:16:43;;;;;;;10.85;7.60;;;16.10;70.00;;;;;;10269226;28;20371;-53
2023/04/17 20:21:45;;;;;;;6.60;5.90;;;16.10;69.80;;;;;;10286215;28;20030;-55
2023/04/17 20:26:46;;;;;;;9.82;6.53;;;16.10;69.80;;;;;;10268510;28;20333;-55
2023/04/17 20:31:47;;;;;;;8.90;6.68;;;16.10;69.70;;;;;;10281977;28;20027;-51
2023/04/17 20:36:47;;;;;;;7.40;6.60;;;16.10;69.40;;;;;;10268309;28;20027;-50
2023/04/17 20:41:48;;;;;;;7.55;5.80;;;16.20;69.20;;;;;;10284514;28;20106;-49
2023/04/17 20:46:48;;;;;;;10.45;7.15;;;16.10;68.90;;;;;;10284658;28;20178;-50
2023/04/17 20:51:50;;;;;;;10.05;6.93;;;16.10;69.20;;;;;;10267235;28;20126;-50
2023/04/17 20:56:51;;;;;;;7.60;6.65;;;16.10;69.40;;;;;;10284110;28;20385;-49
2023/04/17 21:01:51;;;;;;;8.75;6.82;;;16.10;69.40;;;;;;10284423;28;20025;-50
2023/04/17 21:06:53;;;;;;;9.95;6.20;;;16.00;69.40;;;;;;10286198;28;20031;-51
2023/04/17 21:11:54;;;;;;;8.52;6.47;;;16.00;69.30;;;;;;10286770;28;20065;-50
2023/04/17 21:16:57;;;;;;;7.43;6.20;;;16.00;69.30;;;;;;10286253;28;20162;-52
2023/04/17 21:21:58;;;;;;;8.15;6.60;;;16.00;69.20;;;;;;10286532;28;20131;-51
2023/04/17 21:26:58;;;;;;;7.15;6.40;;;16.00;69.20;;;;;;10286709;28;20118;-52
2023/04/17 21:31:59;;;;;;;7.90;6.43;;;16.00;69.20;;;;;;10286658;28;20109;-51
2023/04/17 21:37:03;;;;;;;8.55;6.05;;;16.00;69.00;;;;;;10286097;28;20025;-52
2023/04/17 21:42:04;;;;;;;6.38;5.68;;;16.00;68.90;;;;;;10286325;28;20031;-52
2023/04/17 21:47:05;;;;;;;7.55;6.00;;;16.00;68.90;;;;;;10285404;28;20047;-50
2023/04/17 21:52:05;;;;;;;7.72;5.78;;;16.00;68.90;;;;;;10285317;28;20102;-54
2023/04/17 21:57:06;;;;;;;7.97;6.47;;;15.90;68.70;;;;;;10268156;28;20034;-51
2023/04/17 22:02:07;;;;;;;6.70;6.03;;;15.90;68.80;;;;;;10285027;28;20067;-53
2023/04/17 22:07:07;;;;;;;7.15;6.28;;;15.90;68.70;;;;;;10285079;28;20112;-52
2023/04/17 22:12:12;;;;;;;7.32;6.53;;;15.90;68.90;;;;;;10284835;28;20049;-48
2023/04/17 22:17:14;;;;;;;8.15;6.60;;;15.90;68.80;;;;;;10285043;28;20014;-50
2023/04/17 22:22:15;;;;;;;7.47;6.15;;;15.90;68.80;;;;;;10267239;28;20072;-50
2023/04/17 22:27:15;;;;;;;7.43;5.97;;;15.90;68.80;;;;;;10283978;28;20375;-52
2023/04/17 22:32:16;;;;;;;8.23;6.68;;;15.90;68.90;;;;;;10267214;28;20143;-52
2023/04/17 22:37:17;;;;;;;6.95;5.50;;;15.90;68.70;;;;;;10284731;28;20654;-53
2023/04/17 22:42:18;;;;;;;7.60;6.00;;;15.90;68.80;;;;;;10283646;28;20023;-53
2023/04/17 22:47:20;;;;;;;9.00;6.45;;;15.80;68.80;;;;;;10283798;28;20130;-49
2023/04/17 22:52:21;;;;;;;7.88;6.00;;;15.80;68.80;;;;;;10283241;28;20034;-52
2023/04/17 22:57:22;;;;;;;7.70;6.57;;;15.80;68.80;;;;;;10283737;28;20023;-50
2023/04/17 23:02:24;;;;;;;6.50;5.55;;;15.80;68.80;;;;;;10272463;28;20034;-53
2023/04/17 23:07:24;;;;;;;6.40;5.63;;;15.80;68.80;;;;;;10283204;28;20022;-53
2023/04/17 23:12:25;;;;;;;6.88;5.95;;;15.80;68.80;;;;;;10283828;28;20537;-52
2023/04/17 23:17:26;;;;;;;6.85;6.03;;;15.80;68.80;;;;;;10283312;28;20043;-53
2023/04/17 23:22:26;;;;;;;8.70;6.35;;;15.80;68.80;;;;;;10282739;28;20109;-51
2023/04/17 23:27:27;;;;;;;6.78;5.72;;;15.80;68.80;;;;;;10282944;28;20077;-50
2023/04/17 23:32:28;;;;;;;6.90;5.68;;;15.70;68.70;;;;;;10283240;28;20077;-50
2023/04/17 23:37:28;;;;;;;9.82;6.57;;;15.80;68.80;;;;;;10285876;28;20041;-52
2023/04/17 23:42:29;;;;;;;8.40;6.30;;;15.70;68.60;;;;;;10290416;28;20114;-52
2023/04/17 23:47:30;;;;;;;8.63;6.35;;;15.70;68.70;;;;;;10272937;28;20049;-50
2023/04/17 23:52:31;;;;;;;6.68;5.95;;;15.70;69.10;;;;;;10290285;28;20019;-48
2023/04/17 23:57:34;;;;;;;6.30;5.65;;;15.70;68.40;;;;;;10290405;28;20077;-50
